createdAt,value
2018-12-17T00:00:13.532Z,30.80
2018-12-17T00:02:42.514Z,31.35
2018-12-17T00:05:11.908Z,32.33
2018-12-17T00:07:39.992Z,32.47
2018-12-17T00:10:08.592Z,32.10
2018-12-17T00:12:37.561Z,31.55
2018-12-17T00:15:05.983Z,30.12
2018-12-17T00:17:34.588Z,30.72
2018-12-17T00:20:03.522Z,31.20
2018-12-17T00:22:32.510Z,32.48
2018-12-17T00:25:00.626Z,30.67
2018-12-17T00:27:30.128Z,34.67
2018-12-17T00:30:00.307Z,32.45
2018-12-17T00:32:29.034Z,30.70
2018-12-17T00:34:57.646Z,33.58
2018-12-17T00:37:27.818Z,33.25
2018-12-17T00:39:57.580Z,32.37
2018-12-17T00:42:25.826Z,33.20
2018-12-17T00:44:55.195Z,33.08
2018-12-17T00:47:23.269Z,30.00
2018-12-17T00:49:53.242Z,33.53
2018-12-17T00:52:22.109Z,31.35
2018-12-17T00:54:50.863Z,32.30
2018-12-17T00:57:18.936Z,32.48
2018-12-17T00:59:48.221Z,33.00
2018-12-17T01:02:17.924Z,33.78
2018-12-17T01:04:46.717Z,33.02
2018-12-17T01:07:18.240Z,34.43
2018-12-17T01:09:49.112Z,34.25
2018-12-17T01:12:18.321Z,34.00
2018-12-17T01:14:48.518Z,32.15
2018-12-17T01:17:18.126Z,33.25
2018-12-17T01:19:46.326Z,36.68
2018-12-17T01:22:15.963Z,34.92
2018-12-17T01:24:44.026Z,36.20
2018-12-17T01:27:13.518Z,34.45
2018-12-17T01:29:41.950Z,36.38
2018-12-17T01:32:10.617Z,36.50
2018-12-17T01:34:38.741Z,32.45
2018-12-17T01:37:06.704Z,34.92
2018-12-17T01:39:35.713Z,33.45
2018-12-17T01:42:04.761Z,33.78
2018-12-17T01:44:33.401Z,34.10
2018-12-17T01:47:01.705Z,36.08
2018-12-17T01:49:31.815Z,34.50
2018-12-17T01:52:01.296Z,34.15
2018-12-17T01:54:31.133Z,34.23
2018-12-17T01:56:59.203Z,34.23
2018-12-17T01:59:29.491Z,34.40
2018-12-17T02:01:59.367Z,35.28
2018-12-17T02:04:29.381Z,36.68
2018-12-17T02:06:58.693Z,32.45
2018-12-17T02:09:27.442Z,35.85
2018-12-17T02:11:56.008Z,33.63
2018-12-17T02:14:24.184Z,32.67
2018-12-17T02:16:52.321Z,37.00
2018-12-17T02:19:21.496Z,35.60
2018-12-17T02:21:49.487Z,36.50
2018-12-17T02:24:17.473Z,35.25
2018-12-17T02:26:46.338Z,35.23
2018-12-17T02:29:15.242Z,34.83
2018-12-17T02:31:54.689Z,36.25
2018-12-17T02:34:22.823Z,34.58
2018-12-17T02:36:51.859Z,35.75
2018-12-17T02:39:20.503Z,34.55
2018-12-17T02:41:49.414Z,33.75
2018-12-17T02:44:18.427Z,34.80
2018-12-17T02:46:47.767Z,34.45
2018-12-17T02:49:17.675Z,35.25
2018-12-17T02:51:47.149Z,36.00
2018-12-17T02:54:16.628Z,34.15
2018-12-17T02:56:46.236Z,36.15
2018-12-17T02:59:14.779Z,35.78
2018-12-17T03:01:43.763Z,34.27
2018-12-17T03:04:12.409Z,33.88
2018-12-17T03:06:41.399Z,35.80
2018-12-17T03:09:09.483Z,36.90
2018-12-17T03:11:39.063Z,35.13
2018-12-17T03:14:08.441Z,36.13
2018-12-17T03:16:36.385Z,37.05
2018-12-17T03:19:05.701Z,34.00
2018-12-17T03:21:34.426Z,36.50
2018-12-17T03:24:03.537Z,35.78
2018-12-17T03:26:33.200Z,35.38
2018-12-17T03:29:01.843Z,35.70
2018-12-17T03:31:30.798Z,36.53
2018-12-17T03:33:59.707Z,33.38
2018-12-17T03:36:28.376Z,34.88
2018-12-17T03:38:56.941Z,36.13
2018-12-17T03:41:25.188Z,35.83
2018-12-17T03:43:53.435Z,36.95
2018-12-17T03:46:21.607Z,36.05
2018-12-17T03:48:49.734Z,35.17
2018-12-17T03:51:17.931Z,34.33
2018-12-17T03:53:47.991Z,35.03
2018-12-17T03:56:17.003Z,38.02
2018-12-17T03:58:45.145Z,35.68
2018-12-17T04:01:13.869Z,36.48
2018-12-17T04:03:42.759Z,34.43
2018-12-17T04:06:12.359Z,35.48
2018-12-17T04:08:40.624Z,35.00
2018-12-17T04:11:10.767Z,35.50
2018-12-17T04:13:41.135Z,39.50
2018-12-17T04:16:09.149Z,36.80
2018-12-17T04:18:38.497Z,36.95
2018-12-17T04:21:07.300Z,36.70
2018-12-17T04:23:35.480Z,35.20
2018-12-17T04:26:04.335Z,35.75
2018-12-17T04:28:33.718Z,35.35
2018-12-17T04:31:02.336Z,34.45
2018-12-17T04:33:31.685Z,37.42
2018-12-17T04:36:00.873Z,37.17
2018-12-17T04:38:29.499Z,37.38
2018-12-17T04:40:57.503Z,34.58
2018-12-17T04:43:25.490Z,34.35
2018-12-17T04:45:53.484Z,34.75
2018-12-17T04:48:23.347Z,35.65
2018-12-17T04:50:52.960Z,35.63
2018-12-17T04:53:22.714Z,37.15
2018-12-17T04:55:50.758Z,33.70
2018-12-17T04:58:18.983Z,34.65
2018-12-17T05:00:47.048Z,34.40
2018-12-17T05:03:16.333Z,34.90
2018-12-17T05:05:44.591Z,36.38
2018-12-17T05:08:14.766Z,35.13
2018-12-17T05:10:43.422Z,37.30
2018-12-17T05:13:11.442Z,33.95
2018-12-17T05:15:41.113Z,36.13
2018-12-17T05:18:10.642Z,35.58
2018-12-17T05:20:39.693Z,33.30
2018-12-17T05:23:08.379Z,34.70
2018-12-17T05:25:37.083Z,34.85
2018-12-17T05:28:06.602Z,37.80
2018-12-17T05:30:35.383Z,35.20
2018-12-17T05:33:04.476Z,37.40
2018-12-17T05:35:32.824Z,34.78
2018-12-17T05:38:01.869Z,36.48
2018-12-17T05:40:31.824Z,37.00
2018-12-17T05:43:01.899Z,34.45
2018-12-17T05:45:30.579Z,36.68
2018-12-17T05:47:59.752Z,37.10
2018-12-17T05:50:28.987Z,35.98
2018-12-17T05:52:57.355Z,37.15
2018-12-17T05:55:25.542Z,40.17
2018-12-17T05:57:55.608Z,36.93
2018-12-17T06:00:24.810Z,38.73
2018-12-17T06:02:52.881Z,36.08
2018-12-17T06:05:20.914Z,37.08
2018-12-17T06:07:48.927Z,37.05
2018-12-17T06:10:16.915Z,38.80
2018-12-17T06:12:46.238Z,37.73
2018-12-17T06:15:14.988Z,40.60
2018-12-17T06:17:43.584Z,40.50
2018-12-17T06:20:11.555Z,40.73
2018-12-17T06:22:39.558Z,41.88
2018-12-17T06:25:08.233Z,41.68
2018-12-17T06:27:38.652Z,41.13
2018-12-17T06:30:08.429Z,41.75
2018-12-17T06:32:37.864Z,39.67
2018-12-17T06:35:06.794Z,41.35
2018-12-17T06:37:35.410Z,39.98
2018-12-17T06:40:10.165Z,40.45
2018-12-17T06:42:35.739Z,42.48
2018-12-17T06:45:05.171Z,46.88
2018-12-17T06:47:33.955Z,44.40
2018-12-17T06:50:03.591Z,47.45
2018-12-17T06:52:31.748Z,39.85
2018-12-17T06:55:01.308Z,46.33
2018-12-17T06:57:32.488Z,42.20
2018-12-17T07:00:02.965Z,45.17
2018-12-17T07:02:30.932Z,41.00
2018-12-17T07:04:58.991Z,48.40
2018-12-17T07:07:27.696Z,47.10
2018-12-17T07:09:56.640Z,43.63
2018-12-17T07:12:25.191Z,43.48
2018-12-17T07:15:00.630Z,44.25
2018-12-17T07:17:29.461Z,41.95
2018-12-17T07:19:57.943Z,43.80
2018-12-17T07:22:26.584Z,39.63
2018-12-17T07:24:56.635Z,45.58
2018-12-17T07:29:59.984Z,41.60
2018-12-17T07:32:28.032Z,42.17
2018-12-17T07:34:56.233Z,40.75
2018-12-17T07:37:24.221Z,41.63
2018-12-17T07:39:52.324Z,43.80
2018-12-17T07:42:26.518Z,43.33
2018-12-17T07:44:55.796Z,48.90
2018-12-17T07:47:23.996Z,180.87
2018-12-17T07:49:52.308Z,60.75
2018-12-17T07:52:21.126Z,49.67
2018-12-17T07:54:49.107Z,43.75
2018-12-17T07:57:25.320Z,45.40
2018-12-17T07:59:57.103Z,48.15
2018-12-17T08:02:26.418Z,44.48
2018-12-17T08:04:55.339Z,44.00
2018-12-17T08:07:25.702Z,44.67
2018-12-17T08:09:55.288Z,42.23
2018-12-17T08:12:25.399Z,41.37
2018-12-17T08:14:54.262Z,43.30
2018-12-17T08:17:22.510Z,43.23
2018-12-17T08:19:51.245Z,42.67
2018-12-17T08:22:19.942Z,40.92
2018-12-17T08:24:48.637Z,43.60
2018-12-17T08:27:22.316Z,40.07
2018-12-17T08:29:50.531Z,41.07
2018-12-17T08:32:19.511Z,43.50
2018-12-17T08:34:50.819Z,50.30
2018-12-17T08:37:20.305Z,44.47
2018-12-17T08:39:50.505Z,42.00
2018-12-17T08:42:20.426Z,60.50
2018-12-17T08:44:49.750Z,65.03
2018-12-17T08:47:18.539Z,52.77
2018-12-17T08:49:47.561Z,52.83
2018-12-17T08:52:15.773Z,39.37
2018-12-17T08:54:45.250Z,42.20
2018-12-17T08:57:14.487Z,42.20
2018-12-17T08:59:43.024Z,41.83
2018-12-17T09:02:14.187Z,40.60
2018-12-17T09:04:42.838Z,45.27
2018-12-17T09:07:10.975Z,45.30
2018-12-17T09:09:40.129Z,42.63
2018-12-17T09:12:10.334Z,44.07
2018-12-17T09:14:40.147Z,48.60
2018-12-17T09:17:09.041Z,46.10
2018-12-17T09:19:39.359Z,50.00
2018-12-17T09:22:12.147Z,47.83
2018-12-17T09:24:42.573Z,43.60
2018-12-17T09:27:11.974Z,41.17
2018-12-17T09:29:40.673Z,42.20
2018-12-17T09:32:09.342Z,45.07
2018-12-17T09:34:40.390Z,40.70
2018-12-17T09:37:13.151Z,41.00
2018-12-17T09:39:45.714Z,39.83
2018-12-17T09:42:17.503Z,41.97
2018-12-17T09:44:47.299Z,42.50
2018-12-17T09:47:21.559Z,43.07
2018-12-17T09:49:55.576Z,45.00
2018-12-17T09:52:23.926Z,42.77
2018-12-17T09:54:52.815Z,46.07
2018-12-17T09:57:21.503Z,44.83
2018-12-17T09:59:52.271Z,46.50
2018-12-17T10:02:22.350Z,41.83
2018-12-17T10:04:51.390Z,41.30
2018-12-17T10:07:21.226Z,41.83
2018-12-17T10:09:49.330Z,39.87
2018-12-17T10:12:19.172Z,40.00
2018-12-17T10:14:48.281Z,42.60
2018-12-17T10:17:16.516Z,39.10
2018-12-17T10:19:47.953Z,40.10
2018-12-17T10:22:16.514Z,42.80
2018-12-17T10:24:45.275Z,42.90
2018-12-17T10:27:16.433Z,45.33
2018-12-17T10:29:51.164Z,46.50
2018-12-17T10:32:20.430Z,42.03
2018-12-17T10:34:50.771Z,37.83
2018-12-17T10:37:20.546Z,40.60
2018-12-17T10:39:50.237Z,42.83
2018-12-17T10:42:20.065Z,39.73
2018-12-17T10:44:50.276Z,38.60
2018-12-17T10:47:22.687Z,41.20
2018-12-17T10:49:53.378Z,39.20
2018-12-17T10:52:23.824Z,37.13
2018-12-17T10:54:52.198Z,37.83
2018-12-17T10:57:24.851Z,37.77
2018-12-17T10:59:56.290Z,37.83
2018-12-17T11:02:34.726Z,39.50
2018-12-17T11:05:14.279Z,38.10
2018-12-17T11:07:43.913Z,36.80
2018-12-17T11:10:15.336Z,41.17
2018-12-17T11:15:29.477Z,38.10
2018-12-17T11:17:57.755Z,38.73
2018-12-17T11:20:28.001Z,40.00
2018-12-17T11:22:59.192Z,36.63
2018-12-17T11:25:28.910Z,37.60
2018-12-17T11:27:58.259Z,36.00
2018-12-17T11:30:34.052Z,35.77
2018-12-17T11:33:08.619Z,38.50
2018-12-17T11:35:38.864Z,37.80
2018-12-17T11:38:09.581Z,40.20
2018-12-17T11:40:37.770Z,42.97
2018-12-17T11:43:06.076Z,40.90
2018-12-17T11:45:39.720Z,42.47
2018-12-17T11:48:10.178Z,42.50
2018-12-17T11:50:40.082Z,40.40
2018-12-17T11:53:09.799Z,40.77
2018-12-17T11:55:42.787Z,41.10
2018-12-17T11:58:13.600Z,40.80
2018-12-17T12:00:53.778Z,38.47
2018-12-17T12:03:20.597Z,37.37
2018-12-17T12:05:49.678Z,37.17
2018-12-17T12:08:18.483Z,39.90
2018-12-17T12:10:49.773Z,36.07
2018-12-17T12:13:34.409Z,41.80
2018-12-17T12:16:08.727Z,35.53
2018-12-17T12:18:40.386Z,36.67
2018-12-17T12:21:11.376Z,37.00
2018-12-17T12:23:40.040Z,33.60
2018-12-17T12:26:08.979Z,32.97
2018-12-17T12:28:38.092Z,33.07
2018-12-17T12:31:09.929Z,33.67
2018-12-17T12:33:38.709Z,32.03
2018-12-17T12:36:10.290Z,33.80
2018-12-17T12:38:41.379Z,33.10
2018-12-17T12:41:12.167Z,30.47
2018-12-17T12:43:41.266Z,29.30
2018-12-17T12:46:10.267Z,31.47
2018-12-17T12:48:45.598Z,33.87
2018-12-17T12:51:13.947Z,33.33
2018-12-17T12:53:43.276Z,37.17
2018-12-17T12:56:15.158Z,30.97
2018-12-17T12:58:43.301Z,30.27
2018-12-17T13:01:13.043Z,30.50
2018-12-17T13:03:47.990Z,26.07
2018-12-17T13:06:17.714Z,23.90
2018-12-17T13:08:50.058Z,22.90
2018-12-17T13:11:21.895Z,21.30
2018-12-17T13:14:06.427Z,21.77
2018-12-17T13:16:35.793Z,19.20
2018-12-17T13:19:06.017Z,21.83
2018-12-17T13:21:38.949Z,20.90
2018-12-17T13:24:07.111Z,19.20
2018-12-17T13:26:39.632Z,20.00
2018-12-17T13:29:08.131Z,19.30
2018-12-17T13:31:38.246Z,19.73
2018-12-17T13:34:10.849Z,20.27
2018-12-17T13:36:40.201Z,20.93
2018-12-17T13:39:08.635Z,21.33
2018-12-17T13:41:39.433Z,20.90
2018-12-17T13:44:09.224Z,22.30
2018-12-17T13:46:38.170Z,21.60
2018-12-17T13:49:11.556Z,23.03
2018-12-17T13:51:46.637Z,22.60
2018-12-17T13:54:15.143Z,22.23
2018-12-17T13:56:45.607Z,22.90
2018-12-17T13:59:16.080Z,22.30
2018-12-17T14:01:52.985Z,21.97
2018-12-17T14:04:22.939Z,22.83
2018-12-17T14:06:52.996Z,20.53
2018-12-17T14:09:23.031Z,20.63
2018-12-17T14:11:54.390Z,20.63
2018-12-17T14:14:23.975Z,18.30
2018-12-17T14:16:58.166Z,19.00
2018-12-17T14:19:29.444Z,17.97
2018-12-17T14:22:09.378Z,20.47
2018-12-17T14:24:37.876Z,19.30
2018-12-17T14:27:08.197Z,20.50
2018-12-17T14:29:37.775Z,19.07
2018-12-17T14:32:05.898Z,20.57
2018-12-17T14:34:40.753Z,18.37
2018-12-17T14:37:11.405Z,19.00
2018-12-17T14:39:39.463Z,18.50
2018-12-17T14:42:13.921Z,19.57
2018-12-17T14:44:48.950Z,27.43
2018-12-17T14:47:19.502Z,22.47
2018-12-17T14:49:49.043Z,24.23
2018-12-17T14:52:23.199Z,22.80
2018-12-17T14:54:53.420Z,23.40
2018-12-17T14:57:24.362Z,21.73
2018-12-17T14:59:56.625Z,20.00
2018-12-17T15:02:28.511Z,20.50
2018-12-17T15:04:59.323Z,21.47
2018-12-17T15:07:29.834Z,23.27
2018-12-17T15:09:59.778Z,21.77
2018-12-17T15:12:32.669Z,21.67
2018-12-17T15:15:07.251Z,19.97
2018-12-17T15:17:39.250Z,24.17
2018-12-17T15:20:11.296Z,22.60
2018-12-17T15:22:44.304Z,22.00
2018-12-17T15:25:20.280Z,24.60
2018-12-17T15:27:48.971Z,22.80
2018-12-17T15:30:18.757Z,26.00
2018-12-17T15:32:48.089Z,20.33
2018-12-17T15:35:17.022Z,17.57
2018-12-17T15:37:45.682Z,18.87
2018-12-17T15:40:14.320Z,20.07
2018-12-17T15:42:43.299Z,18.73
2018-12-17T15:45:12.996Z,18.07
2018-12-17T15:47:43.747Z,21.80
2018-12-17T15:50:12.638Z,32.20
2018-12-17T15:52:42.325Z,16.60
2018-12-17T15:55:11.794Z,16.40
2018-12-17T15:57:41.494Z,16.43
2018-12-17T16:00:13.185Z,15.60
2018-12-17T16:02:43.015Z,14.80
2018-12-17T16:05:12.633Z,15.27
2018-12-17T16:07:42.202Z,15.70
2018-12-17T16:10:11.473Z,15.73
2018-12-17T16:12:39.934Z,16.00
2018-12-17T16:15:13.831Z,15.93
2018-12-17T16:17:50.407Z,15.90
2018-12-17T16:20:32.998Z,17.20
2018-12-17T16:23:02.487Z,16.87
2018-12-17T16:25:33.845Z,24.00
2018-12-17T16:28:06.751Z,20.90
2018-12-17T16:30:39.649Z,19.37
2018-12-17T16:33:09.240Z,15.87
2018-12-17T16:35:40.512Z,13.80
2018-12-17T16:38:13.460Z,13.33
2018-12-17T16:40:43.704Z,13.93
2018-12-17T16:43:20.176Z,12.07
2018-12-17T16:45:51.373Z,13.70
2018-12-17T16:48:21.419Z,15.40
2018-12-17T16:50:50.278Z,14.33
2018-12-17T16:53:20.517Z,14.00
2018-12-17T16:55:52.094Z,11.43
2018-12-17T16:58:28.870Z,12.90
2018-12-17T17:01:03.517Z,12.17
2018-12-17T17:03:35.264Z,15.70
2018-12-17T17:06:05.673Z,17.03
2018-12-17T17:08:35.356Z,17.10
2018-12-17T17:11:14.474Z,18.80
2018-12-17T17:13:49.255Z,17.70
2018-12-17T17:16:18.692Z,19.37
2018-12-17T17:18:55.068Z,17.80
2018-12-17T17:21:32.284Z,17.87
2018-12-17T17:24:03.219Z,19.27
2018-12-17T17:26:39.509Z,11.87
2018-12-17T17:29:11.076Z,9.70
2018-12-17T17:31:46.029Z,9.40
2018-12-17T17:34:22.663Z,11.70
2018-12-17T17:36:59.257Z,9.80
2018-12-17T17:39:29.652Z,10.80
2018-12-17T17:41:59.161Z,15.17
2018-12-17T17:44:32.581Z,12.73
2018-12-17T17:47:11.974Z,11.20
2018-12-17T17:49:43.062Z,12.60
2018-12-17T17:52:13.775Z,11.43
2018-12-17T17:54:45.432Z,9.27
2018-12-17T17:57:28.949Z,11.50
2018-12-17T17:59:57.573Z,13.30
2018-12-17T18:02:27.123Z,13.80
2018-12-17T18:04:57.566Z,14.23
2018-12-17T18:10:04.867Z,15.60
2018-12-17T18:12:33.492Z,10.40
2018-12-17T18:15:09.021Z,10.00
2018-12-17T18:17:40.689Z,10.23
2018-12-17T18:20:16.159Z,11.00
2018-12-17T18:22:51.754Z,9.93
2018-12-17T18:25:29.359Z,11.17
2018-12-17T18:28:14.042Z,11.37
2018-12-17T18:30:45.471Z,10.63
2018-12-17T18:35:58.098Z,11.97
2018-12-17T18:38:27.539Z,18.00
2018-12-17T18:41:08.910Z,21.03
2018-12-17T18:46:41.993Z,22.67
2018-12-17T18:49:11.311Z,37.90
2018-12-17T18:51:40.435Z,38.70
2018-12-17T18:54:11.231Z,38.23
2018-12-17T19:02:03.598Z,11.60
2018-12-17T19:04:34.946Z,10.90
2018-12-17T19:07:07.609Z,9.63
2018-12-17T19:09:50.232Z,10.10
2018-12-17T19:12:20.720Z,9.13
2018-12-17T19:14:49.799Z,9.70
2018-12-17T19:17:17.867Z,8.90
2018-12-17T19:22:43.779Z,8.80
2018-12-17T19:30:51.816Z,9.20
2018-12-17T19:36:07.988Z,9.77
2018-12-17T19:38:39.240Z,10.17
2018-12-17T19:41:21.254Z,10.23
2018-12-17T19:43:50.363Z,12.10
2018-12-17T19:46:26.128Z,10.50
2018-12-17T19:48:58.079Z,12.07
2018-12-17T19:51:31.897Z,15.30
2018-12-17T19:56:38.885Z,12.40
2018-12-17T19:59:09.667Z,12.13
2018-12-17T20:01:40.160Z,11.83
2018-12-17T20:04:21.620Z,12.27
2018-12-17T20:06:55.135Z,12.27
2018-12-17T20:09:23.920Z,13.27
2018-12-17T20:11:56.605Z,19.30
2018-12-17T20:14:31.755Z,10.43
2018-12-17T20:17:00.579Z,10.10
2018-12-17T20:22:21.707Z,11.90
2018-12-17T20:24:57.736Z,11.17
2018-12-17T20:27:38.205Z,11.80
2018-12-17T20:30:19.926Z,9.27
2018-12-17T20:32:53.517Z,8.40
2018-12-17T20:35:27.784Z,6.30
2018-12-17T20:43:43.610Z,12.20
2018-12-17T20:46:22.024Z,11.30
2018-12-17T20:48:52.656Z,10.00
2018-12-17T20:51:20.712Z,9.07
2018-12-17T20:53:51.849Z,8.67
2018-12-17T20:56:27.726Z,7.30
2018-12-17T21:01:51.908Z,6.93
2018-12-17T21:04:24.031Z,8.70
2018-12-17T21:06:59.007Z,8.37
2018-12-17T21:09:31.241Z,9.33
2018-12-17T21:14:40.846Z,10.57
2018-12-17T21:19:50.000Z,10.30
2018-12-17T21:22:20.106Z,10.90
2018-12-17T21:24:51.968Z,10.60
2018-12-17T21:27:26.118Z,10.77
2018-12-17T21:32:50.700Z,11.67
2018-12-17T21:35:26.173Z,10.27
2018-12-17T21:38:05.379Z,18.00
2018-12-17T21:40:38.660Z,7.63
2018-12-17T21:43:12.898Z,6.73
2018-12-17T21:45:43.377Z,6.70
2018-12-17T21:48:16.005Z,9.07
2018-12-17T21:50:52.870Z,5.97
2018-12-17T21:53:24.050Z,6.63
2018-12-17T21:55:54.009Z,7.20
2018-12-17T21:58:24.858Z,6.70
2018-12-17T22:00:53.118Z,7.60
2018-12-17T22:03:24.747Z,5.33
2018-12-17T22:05:54.915Z,4.97
2018-12-17T22:08:24.012Z,6.30
2018-12-17T22:10:54.453Z,6.70
2018-12-17T22:13:24.294Z,8.83
2018-12-17T22:15:53.049Z,10.77
2018-12-17T22:18:22.835Z,8.37
2018-12-17T22:20:52.891Z,11.20
2018-12-17T22:23:25.250Z,12.00
2018-12-17T22:25:56.617Z,11.20
2018-12-17T22:28:26.304Z,11.30
2018-12-17T22:30:55.591Z,8.70
2018-12-17T22:33:24.771Z,10.80
2018-12-17T22:35:55.632Z,9.70
2018-12-17T22:38:24.934Z,9.27
2018-12-17T22:40:54.537Z,8.60
2018-12-17T22:43:24.259Z,8.97
2018-12-17T22:45:52.630Z,10.40
2018-12-17T22:48:22.191Z,9.27
2018-12-17T22:50:50.979Z,7.37
2018-12-17T22:53:20.323Z,8.67
2018-12-17T22:55:48.533Z,7.70
2018-12-17T22:58:17.495Z,8.67
2018-12-17T23:00:47.017Z,8.90
2018-12-17T23:03:16.659Z,8.33
2018-12-17T23:05:46.451Z,9.20
2018-12-17T23:08:15.016Z,9.17
2018-12-17T23:10:55.072Z,9.07
2018-12-17T23:13:34.354Z,8.30
2018-12-17T23:16:14.791Z,8.40
2018-12-17T23:18:41.711Z,9.07
2018-12-17T23:21:10.696Z,8.77
2018-12-17T23:23:39.386Z,9.37
2018-12-17T23:26:07.603Z,7.90
2018-12-17T23:28:35.883Z,9.57
2018-12-17T23:31:05.737Z,8.57
2018-12-17T23:33:35.015Z,8.87
2018-12-17T23:36:03.459Z,9.20
2018-12-17T23:38:32.135Z,9.43
2018-12-17T23:41:01.539Z,9.13
2018-12-17T23:43:30.465Z,9.50
2018-12-17T23:45:58.561Z,13.70
2018-12-17T23:48:27.278Z,12.03
2018-12-17T23:50:55.260Z,10.37
2018-12-17T23:53:23.241Z,10.17
2018-12-17T23:55:51.276Z,9.70
2018-12-17T23:58:19.939Z,9.63
